Overview Statistics Trail Chart Weather Telemetry Raw packets
 

This is the latest recevied weather packets stored in our database for station/object IU3OVK-13. If no packets are shown the sender has not sent any weather packets the latest 10 day(s).

<< 19 20 21 22 23 24 25 >>
Time Temp. Humidity Pressure Rain* Wind** Luminosity Snow
1788234811 17.22° C 99% 1010 hPa - - - -
1788234191 17.78° C 99% 1009.8 hPa - - - -
1788233570 17.78° C 99% 1009.8 hPa - - - -
1788232330 17.22° C 99% 1010 hPa - - - -
1788231711 17.78° C 99% 1009.9 hPa - - - -
1788230469 18.33° C 99% 1009.6 hPa - - - -
1788229849 18.33° C 99% 1009.6 hPa - - - -
1788229229 17.78° C 99% 1009.9 hPa - - - -
1788228609 17.78° C 99% 1009.8 hPa - - - -
1788227989 18.89° C 99% 1009.6 hPa - - - -
1788227368 18.89° C 99% 1009.5 hPa - - - -
1788226748 18.33° C 99% 1009.7 hPa - - - -
1788226128 18.33° C 99% 1009.6 hPa - - - -
1788225508 18.89° C 99% 1009.7 hPa - - - -
1788224267 18.33° C 99% 1009.8 hPa - - - -
1788223647 18.89° C 99% 1009.6 hPa - - - -
1788223039 19.44° C 99% 1009.6 hPa - - - -
1788222407 20° C 99% 1009.5 hPa - - - -
1788221787 19.44° C 99% 1009.7 hPa - - - -
1788221167 18.89° C 99% 1009.6 hPa - - - -
1788219926 19.44° C 99% 1010.4 hPa - - - -
1788219306 20° C 99% 1010.4 hPa - - - -
1788218686 20° C 99% 1010.5 hPa - - - -
1788217445 22.22° C 99% 1010 hPa - - - -
1788216825 21.67° C 99% 1010.3 hPa - - - -

* Rain since midnight (hover to see other rain measurements)
** Current wind speed in m/s (hover to see current wind gust speed)